aviador You're here:

KJXN Decoded Metar

JACKSON/REYNOLDS in MI, USA
Report Time2017-09-25 19:56:00
UTC Time2017-09-25 20:36:35
Flight Rules vfr VFR
Wind180° at 05 kt
W.Decomp.*RWY 14: 3.5 kt HW 3.5 kt RCW
RWY 24: 2.9 kt HW 4.1 kt LCW
W.Rank180° ranks 16
Current wind is below 180° avg. (7.9)
Visibility9999 m
Phenomena:N/A
Clouds:N/A
Expected CloudBase > 7,200 ft AGL from Temp-Dew spread
CeilingNone
Temp32°C (ISA +19)
Dew Point14°C (33% RH)
Heat Index31.2°C
AAT31.4°C
QNH1016 hPa
Density Alt3,281 ft
Elevation1,001 ft
Report Wrong Elevation
Raw Report
KJXN 251956Z 18005KT 10SM CLR 32/14 A3000 RMK AO2 SLP152
T03170139=

Extra information for KJXN:More info

Metar Taf Metar & Taf Last 4 Metars F.Rules Stats Wind Profile Meteogram Temp Stats Airport Information Weather charts Add Link Nearby VenuesMetar ALERT Operation Metar Decoded Social comments

AIRNAV info for KJXN